Belmont, North Carolina
Current Conditions -  °F | °C
As of 2:52 PM on Friday 24 Oct 2014 (Local Time) from KCLT Reporting Station
Broken Clouds Broken Clouds  
Wind Chill: 68°   Ceiling: 20000
Heat Index: 68°   Visibility: 10mi
Dew Point: 39°   Wind: 6mph
Humidity: 35%   Direction: 280°W
Pressure: 30.02"   Gusts: NA
Location:  35.24°N, 81.04°W
Report Text: KCLT 241852Z 28005KT 10SM BKN200 20/04 A3002 RMK AO2 SLP162 T02000039
Loading
Personal Weather Stations






























Interactive Weather Map New forecast layout! Learn more

10-Day Weather Forecast

Advertisements
Track Severe Weather on mobile